createdAt,value
2019-05-10T00:00:35.723Z,1.90
2019-05-10T00:03:01.864Z,2.13
2019-05-10T00:05:28.880Z,2.50
2019-05-10T00:07:55.057Z,2.57
2019-05-10T00:10:21.200Z,2.50
2019-05-10T00:12:47.101Z,2.63
2019-05-10T00:15:13.262Z,2.40
2019-05-10T00:17:39.164Z,2.80
2019-05-10T00:20:06.561Z,2.40
2019-05-10T00:22:32.505Z,2.80
2019-05-10T00:25:04.389Z,2.80
2019-05-10T00:27:26.595Z,2.80
2019-05-10T00:29:52.750Z,2.50
2019-05-10T00:32:18.653Z,2.63
2019-05-10T00:34:44.586Z,2.67
2019-05-10T00:37:10.734Z,2.60
2019-05-10T00:39:36.637Z,2.47
2019-05-10T00:42:02.979Z,2.33
2019-05-10T00:44:28.894Z,2.33
2019-05-10T00:46:54.846Z,2.47
2019-05-10T00:49:20.741Z,2.30
2019-05-10T00:51:46.683Z,2.20
2019-05-10T00:54:12.588Z,2.23
2019-05-10T00:56:38.821Z,2.20
2019-05-10T00:59:04.837Z,2.27
2019-05-10T01:01:30.886Z,2.33
2019-05-10T01:03:56.856Z,2.20
2019-05-10T01:06:22.942Z,2.40
2019-05-10T01:08:49.172Z,2.20
2019-05-10T01:11:15.103Z,2.20
2019-05-10T01:13:41.237Z,2.43
2019-05-10T01:16:07.240Z,2.33
2019-05-10T01:18:33.305Z,2.20
2019-05-10T01:20:59.349Z,2.00
2019-05-10T01:23:25.389Z,2.30
2019-05-10T01:25:51.292Z,2.30
2019-05-10T01:28:17.505Z,2.03
2019-05-10T01:30:43.407Z,2.10
2019-05-10T01:33:09.360Z,2.60
2019-05-10T01:35:35.274Z,2.00
2019-05-10T01:38:01.250Z,2.20
2019-05-10T01:40:27.303Z,2.07
2019-05-10T01:42:53.279Z,2.10
2019-05-10T01:45:19.293Z,2.07
2019-05-10T01:47:45.412Z,2.27
2019-05-10T01:50:11.532Z,2.00
2019-05-10T01:52:37.475Z,1.93
2019-05-10T01:55:05.590Z,2.50
2019-05-10T01:57:31.531Z,2.30
2019-05-10T01:59:57.437Z,2.53
2019-05-10T02:02:23.522Z,2.70
2019-05-10T02:04:49.499Z,2.80
2019-05-10T02:07:15.434Z,3.00
2019-05-10T02:09:42.444Z,3.00
2019-05-10T02:12:08.385Z,2.90
2019-05-10T02:14:34.470Z,3.07
2019-05-10T02:17:00.459Z,3.30
2019-05-10T02:19:26.385Z,3.23
2019-05-10T02:21:52.305Z,3.70
2019-05-10T02:24:18.344Z,3.67
2019-05-10T02:26:44.254Z,4.20
2019-05-10T02:29:10.305Z,4.20
2019-05-10T02:31:36.217Z,4.50
2019-05-10T02:34:02.494Z,4.20
2019-05-10T02:36:28.402Z,4.40
2019-05-10T02:38:54.348Z,4.80
2019-05-10T02:41:20.401Z,4.33
2019-05-10T02:43:46.344Z,3.90
2019-05-10T02:46:12.494Z,4.30
2019-05-10T02:48:38.553Z,4.40
2019-05-10T02:51:04.761Z,3.63
2019-05-10T02:53:32.032Z,3.70
2019-05-10T02:55:58.194Z,4.03
2019-05-10T02:58:24.760Z,3.70
2019-05-10T03:00:52.905Z,3.53
2019-05-10T03:03:22.610Z,3.47
2019-05-10T03:05:52.083Z,3.33
2019-05-10T03:08:18.042Z,3.10
2019-05-10T03:10:56.238Z,3.40
2019-05-10T03:13:27.247Z,3.00
2019-05-10T03:15:55.347Z,3.30
2019-05-10T03:18:23.945Z,2.80
2019-05-10T03:20:53.750Z,2.80
2019-05-10T03:23:20.088Z,2.77
2019-05-10T03:25:46.001Z,2.53
2019-05-10T03:28:12.148Z,2.90
2019-05-10T03:30:38.058Z,2.90
2019-05-10T03:33:03.983Z,2.83
2019-05-10T03:35:30.294Z,2.60
2019-05-10T03:37:56.238Z,2.87
2019-05-10T03:40:22.146Z,2.70
2019-05-10T03:42:48.703Z,3.13
2019-05-10T03:45:15.091Z,3.20
2019-05-10T03:47:41.000Z,3.30
2019-05-10T03:50:07.674Z,2.93
2019-05-10T03:52:33.600Z,3.03
2019-05-10T03:54:59.550Z,3.33
2019-05-10T03:57:25.670Z,3.37
2019-05-10T03:59:51.615Z,3.23
2019-05-10T04:02:17.531Z,3.50
2019-05-10T04:04:43.503Z,3.20
2019-05-10T04:07:09.431Z,3.20
2019-05-10T04:09:35.343Z,3.30
2019-05-10T04:12:01.603Z,2.93
2019-05-10T04:14:27.512Z,2.83
2019-05-10T04:16:53.671Z,2.80
2019-05-10T04:19:20.907Z,2.40
2019-05-10T04:21:46.906Z,2.80
2019-05-10T04:24:12.820Z,2.80
2019-05-10T04:26:38.760Z,2.30
2019-05-10T04:29:04.827Z,2.17
2019-05-10T04:31:30.772Z,2.00
2019-05-10T04:33:56.663Z,1.93
2019-05-10T04:36:22.624Z,1.67
2019-05-10T04:38:48.528Z,1.40
2019-05-10T04:41:14.430Z,1.30
2019-05-10T04:43:40.498Z,1.30
2019-05-10T04:46:06.413Z,1.60
2019-05-10T04:48:32.353Z,1.60
2019-05-10T04:50:58.253Z,1.30
2019-05-10T04:53:24.312Z,1.40
2019-05-10T04:55:50.275Z,1.23
2019-05-10T04:58:16.365Z,1.27
2019-05-10T05:00:42.367Z,1.20
2019-05-10T05:03:08.321Z,1.40
2019-05-10T05:05:34.963Z,1.40
2019-05-10T05:08:00.988Z,1.50
2019-05-10T05:10:26.926Z,1.43
2019-05-10T05:12:52.833Z,1.50
2019-05-10T05:15:18.879Z,1.50
2019-05-10T05:17:45.998Z,1.80
2019-05-10T05:20:13.069Z,1.50
2019-05-10T05:22:39.112Z,1.43
2019-05-10T05:25:06.217Z,1.50
2019-05-10T05:27:32.147Z,1.87
2019-05-10T05:29:58.095Z,1.50
2019-05-10T05:32:24.006Z,1.50
2019-05-10T05:34:49.953Z,1.40
2019-05-10T05:37:15.927Z,1.30
2019-05-10T05:39:41.865Z,1.20
2019-05-10T05:42:08.039Z,1.30
2019-05-10T05:44:34.062Z,1.37
2019-05-10T05:47:00.001Z,1.50
2019-05-10T05:49:25.993Z,1.30
2019-05-10T05:51:51.938Z,1.20
2019-05-10T05:54:20.900Z,1.40
2019-05-10T05:56:50.632Z,1.57
2019-05-10T05:59:17.386Z,1.30
2019-05-10T06:01:42.554Z,1.30
2019-05-10T06:04:12.533Z,1.23
2019-05-10T06:06:36.316Z,1.20
2019-05-10T06:09:05.088Z,1.30
2019-05-10T06:11:35.818Z,1.30
2019-05-10T06:14:03.935Z,1.47
2019-05-10T06:16:26.803Z,1.43
2019-05-10T06:18:52.802Z,1.43
2019-05-10T06:21:25.151Z,1.40
2019-05-10T06:23:46.769Z,1.20
2019-05-10T06:26:21.410Z,1.25
2019-05-10T06:28:58.522Z,1.10
2019-05-10T06:31:08.865Z,1.32
2019-05-10T06:33:34.834Z,1.12
2019-05-10T06:36:00.877Z,1.10
2019-05-10T06:38:26.789Z,1.30
2019-05-10T06:40:52.735Z,1.40
2019-05-10T06:43:18.641Z,1.30
2019-05-10T06:45:46.713Z,1.40
2019-05-10T06:48:12.772Z,1.70
2019-05-10T06:50:38.892Z,1.60
2019-05-10T06:53:07.757Z,1.70
2019-05-10T06:55:32.932Z,1.70
2019-05-10T06:58:00.845Z,1.63
2019-05-10T07:00:26.694Z,1.70
2019-05-10T07:02:52.645Z,1.53
2019-05-10T07:05:18.586Z,1.80
2019-05-10T07:07:45.629Z,1.40
2019-05-10T07:10:18.607Z,1.47
2019-05-10T07:12:40.161Z,1.73
2019-05-10T07:15:06.917Z,1.60
2019-05-10T07:17:41.280Z,1.63
2019-05-10T07:20:01.266Z,1.80
2019-05-10T07:22:28.978Z,1.67
2019-05-10T07:24:57.142Z,1.77
2019-05-10T07:27:22.981Z,2.07
2019-05-10T07:29:49.082Z,1.70
2019-05-10T07:32:16.320Z,1.97
2019-05-10T07:34:48.790Z,1.90
2019-05-10T07:37:11.136Z,1.73
2019-05-10T07:39:37.185Z,1.87
2019-05-10T07:42:06.769Z,1.77
2019-05-10T07:44:31.227Z,1.73
2019-05-10T07:46:59.504Z,1.40
2019-05-10T07:49:30.088Z,1.80
2019-05-10T07:51:53.308Z,1.63
2019-05-10T07:54:19.326Z,1.60
2019-05-10T07:56:47.673Z,1.63
2019-05-10T07:59:16.438Z,1.33
2019-05-10T08:01:43.296Z,1.57
2019-05-10T08:04:12.782Z,1.30
2019-05-10T08:06:44.136Z,1.27
2019-05-10T08:09:09.562Z,1.53
2019-05-10T08:11:35.214Z,1.40
2019-05-10T08:14:05.986Z,1.30
2019-05-10T08:16:29.372Z,1.40
2019-05-10T08:19:00.512Z,1.57
2019-05-10T08:21:26.514Z,1.37
2019-05-10T08:23:54.039Z,1.40
2019-05-10T08:26:24.223Z,1.43
2019-05-10T08:28:47.967Z,1.47
2019-05-10T08:31:14.269Z,1.50
2019-05-10T08:33:44.165Z,1.70
2019-05-10T08:36:12.217Z,1.60
2019-05-10T08:38:39.758Z,1.60
2019-05-10T08:41:08.258Z,1.23
2019-05-10T08:43:38.890Z,1.40
2019-05-10T08:46:02.710Z,1.50
2019-05-10T08:48:28.828Z,1.30
2019-05-10T08:50:57.607Z,1.30
2019-05-10T08:53:23.421Z,1.60
2019-05-10T08:55:49.323Z,1.50
2019-05-10T08:58:23.920Z,1.30
2019-05-10T09:00:54.223Z,1.20
2019-05-10T09:03:18.331Z,1.30
2019-05-10T09:05:40.258Z,1.40
2019-05-10T09:08:13.573Z,1.43
2019-05-10T09:10:35.492Z,1.40
2019-05-10T09:13:03.290Z,1.30
2019-05-10T09:15:29.342Z,1.20
2019-05-10T09:17:58.351Z,1.10
2019-05-10T09:20:26.491Z,1.20
2019-05-10T09:22:52.879Z,1.20
2019-05-10T09:25:20.231Z,1.53
2019-05-10T09:27:47.231Z,1.60
2019-05-10T09:30:18.559Z,1.40
2019-05-10T09:32:44.694Z,1.40
2019-05-10T09:35:12.756Z,1.30
2019-05-10T09:37:39.094Z,1.40
2019-05-10T09:40:09.950Z,1.27
2019-05-10T09:42:40.067Z,1.30
2019-05-10T09:45:04.278Z,1.20
2019-05-10T09:47:30.221Z,1.30
2019-05-10T09:49:58.820Z,1.10
2019-05-10T09:52:24.001Z,1.20
2019-05-10T09:54:50.063Z,1.60
2019-05-10T09:57:17.400Z,1.30
2019-05-10T09:59:43.515Z,1.40
2019-05-10T10:02:14.722Z,1.27
2019-05-10T10:04:37.354Z,1.40
2019-05-10T10:07:03.480Z,1.73
2019-05-10T10:09:37.313Z,1.30
2019-05-10T10:12:02.812Z,1.13
2019-05-10T10:14:28.356Z,1.60
2019-05-10T10:16:58.212Z,1.50
2019-05-10T10:19:24.491Z,1.17
2019-05-10T10:21:49.864Z,1.50
2019-05-10T10:24:20.054Z,1.43
2019-05-10T10:26:43.683Z,1.30
2019-05-10T10:29:09.734Z,1.40
2019-05-10T10:31:46.527Z,1.77
2019-05-10T10:34:03.789Z,1.20
2019-05-10T10:36:29.901Z,1.40
2019-05-10T10:38:55.836Z,1.73
2019-05-10T10:41:25.960Z,1.70
2019-05-10T10:43:49.661Z,1.50
2019-05-10T10:46:17.691Z,1.60
2019-05-10T10:48:48.930Z,1.70
2019-05-10T10:51:11.645Z,1.73
2019-05-10T10:53:37.795Z,2.00
2019-05-10T10:56:04.100Z,1.70
2019-05-10T10:58:30.169Z,2.00
2019-05-10T11:00:56.250Z,1.80
2019-05-10T11:03:24.004Z,1.90
2019-05-10T11:05:50.231Z,1.97
2019-05-10T11:08:16.221Z,2.30
2019-05-10T11:10:42.905Z,2.00
2019-05-10T11:13:13.998Z,1.93
2019-05-10T11:15:38.574Z,1.90
2019-05-10T11:18:04.612Z,2.10
2019-05-10T11:20:31.717Z,1.93
2019-05-10T11:22:58.088Z,2.40
2019-05-10T11:25:24.244Z,1.80
2019-05-10T11:27:53.939Z,1.80
2019-05-10T11:30:18.354Z,1.80
2019-05-10T11:32:44.259Z,1.53
2019-05-10T11:35:16.944Z,1.67
2019-05-10T11:37:42.113Z,1.53
2019-05-10T11:40:08.038Z,1.37
2019-05-10T11:42:37.457Z,1.63
2019-05-10T11:45:02.380Z,1.50
2019-05-10T11:47:31.084Z,1.73
2019-05-10T11:49:56.242Z,1.53
2019-05-10T11:52:23.382Z,1.60
2019-05-10T11:54:51.430Z,1.33
2019-05-10T11:57:17.325Z,1.40
2019-05-10T11:59:43.420Z,1.43
2019-05-10T12:02:10.628Z,1.40
2019-05-10T12:04:39.544Z,1.40
2019-05-10T12:07:08.383Z,1.40
2019-05-10T12:09:33.045Z,1.40
2019-05-10T12:12:03.025Z,1.30
2019-05-10T12:14:26.782Z,1.30
2019-05-10T12:16:54.524Z,1.27
2019-05-10T12:19:21.405Z,1.23
2019-05-10T12:21:48.633Z,1.20
2019-05-10T12:24:32.388Z,1.30
2019-05-10T12:29:13.560Z,1.50
2019-05-10T12:31:38.350Z,1.70
2019-05-10T12:34:08.891Z,1.40
2019-05-10T12:36:32.212Z,1.37
2019-05-10T12:38:58.947Z,1.40
2019-05-10T12:41:25.571Z,1.33
2019-05-10T12:43:51.863Z,1.50
2019-05-10T12:46:20.551Z,3.87
2019-05-10T12:48:45.876Z,1.70
2019-05-10T12:51:15.713Z,1.50
2019-05-10T12:53:44.571Z,1.80
2019-05-10T12:56:07.630Z,1.70
2019-05-10T12:58:33.621Z,1.63
2019-05-10T13:00:59.874Z,2.30
2019-05-10T13:03:31.553Z,1.90
2019-05-10T13:05:53.846Z,2.33
2019-05-10T13:08:19.920Z,2.20
2019-05-10T13:10:49.782Z,1.37
2019-05-10T13:13:17.504Z,1.57
2019-05-10T13:15:43.022Z,1.57
2019-05-10T13:18:09.119Z,1.87
2019-05-10T13:20:38.379Z,1.60
2019-05-10T13:23:04.080Z,1.67
2019-05-10T13:25:30.010Z,1.40
2019-05-10T13:27:55.962Z,1.40
2019-05-10T13:30:27.037Z,1.40
2019-05-10T13:32:52.780Z,1.40
2019-05-10T13:35:19.130Z,1.30
2019-05-10T13:37:45.178Z,1.10
2019-05-10T13:40:11.492Z,1.10
2019-05-10T13:42:43.192Z,1.20
2019-05-10T13:45:05.978Z,1.20
2019-05-10T13:47:32.034Z,1.20
2019-05-10T13:49:58.041Z,6.87
2019-05-10T13:52:29.821Z,1.60
2019-05-10T13:54:52.166Z,1.23
2019-05-10T13:57:18.080Z,0.90
2019-05-10T13:59:48.802Z,1.07
2019-05-10T14:02:12.140Z,1.00
2019-05-10T14:04:38.777Z,0.90
2019-05-10T14:07:06.071Z,0.93
2019-05-10T14:09:31.982Z,1.50
2019-05-10T14:11:58.126Z,0.90
2019-05-10T14:14:26.645Z,1.02
2019-05-10T14:16:52.108Z,1.30
2019-05-10T14:19:22.790Z,1.47
2019-05-10T14:21:46.054Z,1.20
2019-05-10T14:24:15.283Z,1.30
2019-05-10T14:26:39.896Z,1.30
2019-05-10T14:29:05.795Z,0.80
2019-05-10T14:31:31.737Z,0.70
2019-05-10T14:34:14.667Z,0.60
2019-05-10T14:36:25.510Z,0.60
2019-05-10T14:38:53.671Z,0.80
2019-05-10T14:41:19.534Z,0.67
2019-05-10T14:43:45.582Z,0.50
2019-05-10T14:46:13.898Z,0.60
2019-05-10T14:48:39.617Z,0.50
2019-05-10T14:51:11.329Z,0.40
2019-05-10T14:53:33.524Z,0.60
2019-05-10T14:55:59.505Z,0.63
2019-05-10T14:58:25.446Z,0.60
2019-05-10T15:00:51.492Z,0.60
2019-05-10T15:03:17.450Z,0.80
2019-05-10T15:05:43.474Z,0.80
2019-05-10T15:08:09.751Z,0.67
2019-05-10T15:10:39.569Z,0.70
2019-05-10T15:13:05.733Z,0.70
2019-05-10T15:15:37.280Z,0.60
2019-05-10T15:18:02.318Z,0.87
2019-05-10T15:20:29.268Z,0.80
2019-05-10T15:22:56.738Z,0.60
2019-05-10T15:25:22.862Z,0.70
2019-05-10T15:27:54.851Z,0.80
2019-05-10T15:30:24.719Z,0.80
2019-05-10T15:32:54.321Z,0.63
2019-05-10T15:35:22.203Z,0.80
2019-05-10T15:37:51.611Z,0.70
2019-05-10T15:40:17.990Z,0.80
2019-05-10T15:42:44.080Z,0.70
2019-05-10T15:45:12.467Z,0.87
2019-05-10T15:47:50.041Z,0.70
2019-05-10T15:50:06.893Z,0.67
2019-05-10T15:52:33.880Z,0.60
2019-05-10T15:54:59.998Z,0.70
2019-05-10T15:57:32.333Z,0.70
2019-05-10T15:59:59.085Z,0.80
2019-05-10T16:02:25.476Z,0.60
2019-05-10T16:04:51.492Z,0.60
2019-05-10T16:07:17.621Z,1.00
2019-05-10T16:09:43.774Z,1.00
2019-05-10T16:12:09.889Z,0.80
2019-05-10T16:14:39.051Z,1.00
2019-05-10T16:17:03.952Z,1.30
2019-05-10T16:19:29.953Z,1.20
2019-05-10T16:21:58.126Z,1.40
2019-05-10T16:24:26.122Z,1.23
2019-05-10T16:26:54.645Z,1.60
2019-05-10T16:29:19.471Z,1.40
2019-05-10T16:31:46.549Z,1.20
2019-05-10T16:34:12.452Z,1.13
2019-05-10T16:36:38.421Z,1.10
2019-05-10T16:39:05.351Z,1.30
2019-05-10T16:41:31.436Z,1.20
2019-05-10T16:43:59.925Z,1.20
2019-05-10T16:46:25.438Z,2.00
2019-05-10T16:48:51.538Z,1.57
2019-05-10T16:51:17.504Z,1.30
2019-05-10T16:53:45.728Z,1.30
2019-05-10T16:56:13.290Z,1.00
2019-05-10T16:58:40.586Z,1.23
2019-05-10T17:01:06.761Z,1.30
2019-05-10T17:03:33.004Z,1.40
2019-05-10T17:06:04.222Z,1.50
2019-05-10T17:08:30.707Z,1.53
2019-05-10T17:10:55.309Z,1.70
2019-05-10T17:13:22.756Z,1.90
2019-05-10T17:15:49.096Z,1.90
2019-05-10T17:18:17.727Z,1.70
2019-05-10T17:20:45.522Z,1.50
2019-05-10T17:23:11.389Z,2.30
2019-05-10T17:25:40.659Z,2.10
2019-05-10T17:28:05.347Z,2.13
2019-05-10T17:30:31.320Z,2.17
2019-05-10T17:33:03.214Z,2.00
2019-05-10T17:35:25.466Z,2.30
2019-05-10T17:37:53.051Z,2.10
2019-05-10T17:40:20.286Z,2.17
2019-05-10T17:42:47.260Z,2.60
2019-05-10T17:45:13.759Z,2.50
2019-05-10T17:47:39.985Z,2.00
2019-05-10T17:50:07.465Z,2.23
2019-05-10T17:52:33.490Z,2.40
2019-05-10T17:54:59.558Z,2.40
2019-05-10T17:57:25.496Z,2.60
2019-05-10T17:59:52.883Z,2.77
2019-05-10T18:02:19.255Z,2.60
2019-05-10T18:04:45.668Z,2.73
2019-05-10T18:07:11.616Z,3.03
2019-05-10T18:09:37.805Z,3.07
2019-05-10T18:12:03.998Z,2.60
2019-05-10T18:14:30.005Z,2.47
2019-05-10T18:16:56.152Z,2.53
2019-05-10T18:19:24.665Z,2.40
2019-05-10T18:21:54.966Z,2.83
2019-05-10T18:24:18.503Z,2.67
2019-05-10T18:26:45.215Z,2.90
2019-05-10T18:29:11.174Z,3.03
2019-05-10T18:31:38.329Z,3.13
2019-05-10T18:34:04.550Z,3.37
2019-05-10T18:36:50.313Z,3.10
2019-05-10T18:38:58.453Z,3.80
2019-05-10T18:41:24.747Z,4.17
2019-05-10T18:43:50.733Z,4.20
2019-05-10T18:46:16.792Z,5.33
2019-05-10T18:48:44.723Z,4.57
2019-05-10T18:51:10.812Z,4.73
2019-05-10T18:53:36.767Z,4.23
2019-05-10T18:56:02.828Z,3.80
2019-05-10T18:58:31.393Z,4.00
2019-05-10T19:01:00.518Z,4.53
2019-05-10T19:03:27.944Z,4.20
2019-05-10T19:05:52.926Z,4.30
2019-05-10T19:08:19.066Z,4.10
2019-05-10T19:10:45.141Z,4.03
2019-05-10T19:13:11.593Z,4.67
2019-05-10T19:15:37.999Z,4.20
2019-05-10T19:18:04.112Z,3.80
2019-05-10T19:20:31.134Z,4.37
2019-05-10T19:22:57.084Z,3.90
2019-05-10T19:25:24.279Z,4.37
2019-05-10T19:27:51.206Z,5.00
2019-05-10T19:30:22.364Z,7.93
2019-05-10T19:32:45.593Z,8.23
2019-05-10T19:35:11.823Z,4.30
2019-05-10T19:37:38.147Z,4.67
2019-05-10T19:40:06.472Z,4.93
2019-05-10T19:42:37.323Z,4.63
2019-05-10T19:45:00.373Z,5.07
2019-05-10T19:47:26.325Z,4.53
2019-05-10T19:49:53.528Z,4.60
2019-05-10T19:52:21.237Z,4.00
2019-05-10T19:54:47.844Z,5.00
2019-05-10T19:57:16.412Z,4.93
2019-05-10T19:59:44.041Z,5.70
2019-05-10T20:02:09.930Z,6.13
2019-05-10T20:04:36.009Z,6.50
2019-05-10T20:07:02.526Z,4.90
2019-05-10T20:09:29.966Z,6.50
2019-05-10T20:11:56.227Z,6.30
2019-05-10T20:14:24.465Z,6.40
2019-05-10T20:16:53.095Z,6.03
2019-05-10T20:19:18.628Z,6.23
2019-05-10T20:21:44.840Z,5.73
2019-05-10T20:24:10.981Z,5.50
2019-05-10T20:26:36.896Z,5.77
2019-05-10T20:29:03.070Z,6.03
2019-05-10T20:31:30.667Z,6.07
2019-05-10T20:33:56.938Z,6.20
2019-05-10T20:36:22.959Z,6.33
2019-05-10T20:38:48.905Z,5.93
2019-05-10T20:41:14.837Z,6.07
2019-05-10T20:43:40.836Z,7.10
2019-05-10T20:46:07.256Z,6.20
2019-05-10T20:48:33.457Z,6.40
2019-05-10T20:50:59.389Z,6.40
2019-05-10T20:53:25.494Z,5.57
2019-05-10T20:55:51.635Z,6.13
2019-05-10T20:58:17.589Z,6.50
2019-05-10T21:00:43.739Z,6.13
2019-05-10T21:03:11.364Z,6.53
2019-05-10T21:05:37.375Z,6.30
2019-05-10T21:08:16.039Z,5.97
2019-05-10T21:10:31.437Z,6.00
2019-05-10T21:12:57.389Z,7.17
2019-05-10T21:15:23.309Z,7.57
2019-05-10T21:17:49.285Z,7.07
2019-05-10T21:20:15.486Z,6.93
2019-05-10T21:22:41.574Z,6.73
2019-05-10T21:25:07.902Z,7.07
2019-05-10T21:27:33.969Z,6.03
2019-05-10T21:29:59.873Z,6.80
2019-05-10T21:32:25.883Z,6.47
2019-05-10T21:34:51.953Z,6.40
2019-05-10T21:37:17.897Z,6.57
2019-05-10T21:39:43.948Z,6.67
2019-05-10T21:42:09.916Z,6.57
2019-05-10T21:44:36.054Z,6.63
2019-05-10T21:47:02.029Z,5.80
2019-05-10T21:49:27.942Z,6.43
2019-05-10T21:51:53.915Z,6.53
2019-05-10T21:54:19.940Z,6.20
2019-05-10T21:56:45.846Z,6.67
2019-05-10T21:59:11.791Z,7.00
2019-05-10T22:01:37.743Z,6.90
2019-05-10T22:04:03.856Z,6.97
2019-05-10T22:06:29.801Z,7.07
2019-05-10T22:08:55.789Z,7.00
2019-05-10T22:11:21.880Z,7.07
2019-05-10T22:13:47.782Z,7.13
2019-05-10T22:16:14.792Z,6.93
2019-05-10T22:18:40.875Z,6.83
2019-05-10T22:21:06.788Z,6.87
2019-05-10T22:23:32.732Z,6.97
2019-05-10T22:25:58.689Z,7.07
2019-05-10T22:28:24.820Z,7.20
2019-05-10T22:30:50.841Z,6.83
2019-05-10T22:33:16.744Z,6.80
2019-05-10T22:35:42.793Z,7.17
2019-05-10T22:38:08.738Z,6.20
2019-05-10T22:40:34.895Z,6.73
2019-05-10T22:43:00.900Z,7.50
2019-05-10T22:45:26.806Z,7.33
2019-05-10T22:47:52.955Z,6.50
2019-05-10T22:50:18.940Z,6.80
2019-05-10T22:52:44.940Z,7.13
2019-05-10T22:55:11.133Z,6.90
2019-05-10T22:57:37.167Z,7.10
2019-05-10T23:00:05.869Z,7.73
2019-05-10T23:02:33.701Z,7.00
2019-05-10T23:04:59.628Z,7.17
2019-05-10T23:07:25.563Z,6.53
2019-05-10T23:09:51.543Z,7.00
2019-05-10T23:12:17.480Z,7.27
2019-05-10T23:14:43.389Z,7.30
2019-05-10T23:17:10.327Z,6.93
2019-05-10T23:19:36.233Z,6.00
2019-05-10T23:22:02.852Z,6.23
2019-05-10T23:24:28.769Z,6.00
2019-05-10T23:26:54.824Z,5.90
2019-05-10T23:29:20.723Z,5.97
2019-05-10T23:31:47.669Z,6.03
2019-05-10T23:34:13.617Z,6.33
2019-05-10T23:36:39.550Z,6.33
2019-05-10T23:39:05.689Z,6.50
2019-05-10T23:41:31.592Z,6.27
2019-05-10T23:43:57.537Z,6.63
2019-05-10T23:46:23.438Z,6.37
2019-05-10T23:48:49.375Z,6.87
2019-05-10T23:51:15.278Z,6.60
2019-05-10T23:53:41.245Z,6.47
2019-05-10T23:56:07.185Z,6.93
2019-05-10T23:58:33.082Z,6.97
